Time;durP1;ratioP1;P1;durP2;ratioP2;P2;SDS_P1;SDS_P2;PMS_P1;PMS_P2;Temp;Humidity;BMP_temperature;BMP_pressure;BME280_temperature;BME280_humidity;BME280_pressure;Samples;Min_cycle;Max_cycle;Signal;HPM_P1;HPM_P2
2023/05/24 00:01:56;;;;;;;1.17;1.17;;;;;;;15.45;81.92;95588.37;4362742;32;20197;-59
2023/05/24 00:04:23;;;;;;;1.17;1.17;;;;;;;15.68;84.63;95581.75;4364754;32;20186;-59
2023/05/24 00:06:49;;;;;;;0.63;0.63;;;;;;;15.64;82.37;95580.03;4345445;32;20211;-59
2023/05/24 00:09:15;;;;;;;1.10;1.10;;;;;;;15.53;81.76;95578.78;4365554;32;20238;-59
2023/05/24 00:11:40;;;;;;;1.23;1.13;;;;;;;15.66;83.24;95572.47;4354131;32;20205;-59
2023/05/24 00:14:05;;;;;;;1.10;1.10;;;;;;;15.74;85.12;95574.34;4363463;32;20189;-59
2023/05/24 00:16:31;;;;;;;0.83;0.83;;;;;;;15.60;83.06;95571.84;4353749;32;20271;-59
2023/05/24 00:18:57;;;;;;;1.00;1.00;;;;;;;15.66;84.82;95562.56;4354569;32;20248;-59
2023/05/24 00:21:23;;;;;;;1.33;0.93;;;;;;;15.51;82.76;95565.72;4357867;32;20189;-59
2023/05/24 00:23:50;;;;;;;1.10;1.10;;;;;;;15.44;83.73;95566.19;4365837;32;20219;-59
2023/05/24 00:26:16;;;;;;;1.10;1.10;;;;;;;15.33;82.99;95574.88;4356142;32;20192;-59
2023/05/24 00:28:41;;;;;;;1.00;1.00;;;;;;;15.37;82.87;95571.25;4349777;32;20247;-60
2023/05/24 00:31:07;;;;;;;1.70;1.50;;;;;;;15.39;83.09;95570.91;4368059;32;20197;-60
2023/05/24 00:33:32;;;;;;;0.93;0.90;;;;;;;15.30;82.93;95568.28;4358470;32;20189;-60
2023/05/24 00:35:58;;;;;;;0.77;0.77;;;;;;;15.32;84.53;95562.63;4364289;32;20212;-59
2023/05/24 00:38:26;;;;;;;1.50;1.13;;;;;;;15.33;83.47;95561.50;4365167;32;20193;-59
2023/05/24 00:40:55;;;;;;;1.53;1.43;;;;;;;15.24;84.07;95561.50;4347779;32;20260;-59
2023/05/24 00:43:20;;;;;;;0.53;0.53;;;;;;;15.06;82.91;95565.31;4345566;32;20207;-60
2023/05/24 00:45:45;;;;;;;0.67;0.67;;;;;;;15.07;83.58;95561.53;4360907;32;20193;-59
2023/05/24 00:48:11;;;;;;;0.83;0.83;;;;;;;15.00;84.74;95563.88;4367392;32;20215;-60
2023/05/24 00:50:38;;;;;;;1.60;1.50;;;;;;;14.87;83.88;95560.28;4378417;32;20207;-59
2023/05/24 00:53:03;;;;;;;1.03;1.03;;;;;;;14.90;85.66;95558.88;4350939;32;20193;-60
2023/05/24 00:55:29;;;;;;;1.63;1.53;;;;;;;15.05;86.89;95553.84;4344496;32;20232;-60
2023/05/24 00:57:58;;;;;;;1.30;1.30;;;;;;;14.96;84.98;95555.75;4358271;32;20197;-59
2023/05/24 01:00:25;;;;;;;1.23;1.23;;;;;;;15.17;85.86;95552.44;4351180;32;20205;-59
2023/05/24 01:02:50;;;;;;;1.00;0.90;;;;;;;15.06;84.39;95559.97;4353356;32;20248;-59
2023/05/24 01:05:17;;;;;;;2.17;1.33;;;;;;;14.99;83.32;95560.44;4363827;32;20232;-60
2023/05/24 01:07:48;;;;;;;5.50;1.53;;;;;;;14.94;86.15;95557.94;4357745;32;20291;-59
2023/05/24 01:10:24;;;;;;;1.23;1.23;;;;;;;14.97;84.64;95559.16;4362336;32;20209;-59
2023/05/24 01:13:12;;;;;;;1.37;1.23;;;;;;;14.91;84.31;95555.88;4354208;32;20189;-59
2023/05/24 01:15:52;;;;;;;1.00;1.00;;;;;;;14.85;84.98;95557.13;4362776;32;20264;-59
2023/05/24 01:18:29;;;;;;;1.17;1.17;;;;;;;14.86;85.51;95550.69;4347283;32;20208;-59
2023/05/24 01:21:08;;;;;;;1.20;1.20;;;;;;;14.83;87.78;95543.31;4360697;32;20186;-59
2023/05/24 01:23:55;;;;;;;1.13;1.13;;;;;;;14.75;86.71;95544.09;4347285;32;20189;-59
2023/05/24 01:26:38;;;;;;;3.47;1.73;;;;;;;14.88;86.18;95537.81;4349508;32;20192;-59
2023/05/24 01:29:04;;;;;;;1.23;1.23;;;;;;;14.90;85.77;95543.63;4369787;32;20184;-59
2023/05/24 01:31:30;;;;;;;1.03;1.03;;;;;;;15.01;86.57;95542.19;4358170;32;20267;-62
2023/05/24 01:33:56;;;;;;;1.20;1.20;;;;;;;15.12;85.25;95540.78;4354345;32;20193;-61
2023/05/24 01:36:21;;;;;;;1.30;1.20;;;;;;;14.96;84.52;95544.25;4360837;32;20273;-61
2023/05/24 01:38:49;;;;;;;2.83;1.63;;;;;;;14.88;85.20;95545.81;4358261;32;20291;-61
2023/05/24 01:41:25;;;;;;;1.63;1.53;;;;;;;14.99;86.71;95544.41;4356754;32;20197;-61
2023/05/24 01:43:59;;;;;;;1.30;1.23;;;;;;;15.20;86.85;95541.87;4349812;32;20263;-61
2023/05/24 01:46:36;;;;;;;1.20;1.20;;;;;;;15.30;87.02;95549.56;4364939;32;20192;-61
2023/05/24 01:49:19;;;;;;;4.13;2.17;;;;;;;15.17;85.47;95544.41;4357917;32;22868;-61
2023/05/24 01:52:16;;;;;;;1.23;1.23;;;;;;;15.19;84.85;95542.19;4359996;32;20255;-61
2023/05/24 01:54:44;;;;;;;2.10;2.00;;;;;;;15.43;87.37;95558.50;4340227;32;20232;-62
2023/05/24 01:57:10;;;;;;;1.13;1.13;;;;;;;15.33;83.99;95556.16;4354958;32;20227;-61
2023/05/24 01:59:38;;;;;;;0.83;0.83;;;;;;;15.26;84.81;95553.19;4382040;32;20197;-61
2023/05/24 02:02:04;;;;;;;1.37;1.33;;;;;;;15.23;85.55;95548.47;4353350;32;20189;-61
2023/05/24 02:04:30;;;;;;;0.70;0.70;;;;;;;15.27;86.75;95554.75;4364874;32;20264;-62
2023/05/24 02:06:55;;;;;;;1.83;1.73;;;;;;;15.17;85.50;95547.06;4363336;32;20227;-61
2023/05/24 02:09:20;;;;;;;5.30;1.77;;;;;;;15.09;85.24;95548.66;4345929;32;20256;-62
2023/05/24 02:11:46;;;;;;;1.47;1.47;;;;;;;15.08;85.13;95542.50;4386624;32;20223;-59
2023/05/24 02:14:12;;;;;;;1.83;1.73;;;;;;;15.13;85.00;95550.37;4363651;32;20176;-59
2023/05/24 02:16:41;;;;;;;1.30;1.30;;;;;;;15.14;83.92;95545.81;4367361;32;20197;-59
2023/05/24 02:19:07;;;;;;;1.50;1.50;;;;;;;15.07;85.20;95546.28;4358483;32;20250;-59
2023/05/24 02:21:33;;;;;;;1.53;1.53;;;;;;;15.09;85.72;95546.75;4362906;32;20193;-59
2023/05/24 02:23:58;;;;;;;1.30;1.30;;;;;;;14.83;85.00;95545.97;4355386;32;20207;-58
2023/05/24 02:26:24;;;;;;;1.87;1.70;;;;;;;14.85;85.35;95551.78;4365955;32;20196;-59
2023/05/24 02:28:50;;;;;;;1.53;1.53;;;;;;;14.83;84.47;95554.00;4373208;32;20197;-59
2023/05/24 02:31:15;;;;;;;1.93;1.83;;;;;;;14.85;86.37;95543.78;4368023;32;20222;-59
2023/05/24 02:33:41;;;;;;;2.10;2.00;;;;;;;14.87;85.24;95544.25;4355040;32;20181;-62
2023/05/24 02:36:06;;;;;;;1.37;1.37;;;;;;;14.72;85.66;95542.06;4360977;32;20184;-61
2023/05/24 02:38:31;;;;;;;1.40;1.40;;;;;;;14.78;85.77;95548.78;4366380;32;20320;-61
2023/05/24 02:40:57;;;;;;;1.83;1.73;;;;;;;14.68;85.76;95543.78;4362155;32;20207;-62
2023/05/24 02:43:22;;;;;;;1.83;1.83;;;;;;;14.72;87.02;95545.53;4360917;32;20242;-62
2023/05/24 02:45:47;;;;;;;3.03;2.83;;;;;;;14.82;88.87;95544.41;4356228;32;20199;-62
2023/05/24 02:48:13;;;;;;;1.40;1.30;;;;;;;14.90;87.63;95540.16;4365675;32;20185;-62
2023/05/24 02:50:38;;;;;;;2.27;2.17;;;;;;;14.91;87.10;95537.19;4354923;32;20200;-62
2023/05/24 02:53:04;;;;;;;1.93;1.83;;;;;;;14.85;87.54;95543.78;4366002;32;20252;-61
2023/05/24 02:55:31;;;;;;;1.87;1.77;;;;;;;14.89;85.90;95542.06;4356535;32;20207;-61
2023/05/24 02:57:56;;;;;;;1.80;1.77;;;;;;;14.86;85.65;95540.00;4353731;32;20190;-61
2023/05/24 03:00:21;;;;;;;2.10;1.70;;;;;;;14.84;86.49;95536.88;4357767;32;20224;-61
2023/05/24 03:02:49;;;;;;;1.13;1.13;;;;;;;14.88;86.85;95535.16;4359489;32;20243;-62
2023/05/24 03:05:15;;;;;;;1.90;1.80;;;;;;;14.70;85.19;95536.25;4363001;32;20189;-62
2023/05/24 03:07:41;;;;;;;1.93;1.83;;;;;;;14.76;85.76;95534.97;4366538;32;20185;-61
2023/05/24 03:10:06;;;;;;;2.00;1.90;;;;;;;14.75;85.42;95536.09;4369724;32;20184;-61
2023/05/24 03:12:32;;;;;;;1.03;1.03;;;;;;;14.65;85.68;95536.38;4352082;32;20294;-62
2023/05/24 03:14:57;;;;;;;1.10;1.10;;;;;;;14.60;85.25;95534.66;4342550;32;20257;-61
2023/05/24 03:17:23;;;;;;;1.00;1.00;;;;;;;14.56;86.30;95538.25;4362515;32;20243;-61
2023/05/24 03:19:48;;;;;;;1.73;1.63;;;;;;;14.64;86.87;95537.50;4358453;32;20260;-62
2023/05/24 03:22:13;;;;;;;1.40;1.40;;;;;;;14.78;86.89;95532.78;4354756;32;20225;-61
2023/05/24 03:24:39;;;;;;;1.53;1.53;;;;;;;14.74;85.39;95531.84;4364450;32;20196;-62
2023/05/24 03:27:05;;;;;;;1.20;1.20;;;;;;;14.81;84.99;95528.69;4357725;32;20193;-61
2023/05/24 03:29:31;;;;;;;2.13;2.00;;;;;;;14.84;86.20;95541.41;4374840;32;20189;-62
2023/05/24 03:31:56;;;;;;;1.97;1.83;;;;;;;14.88;84.98;95543.16;4362320;32;20197;-62
2023/05/24 03:34:22;;;;;;;1.73;1.63;;;;;;;14.84;84.64;95538.75;4377101;32;20230;-61
2023/05/24 03:36:47;;;;;;;2.23;2.03;;;;;;;14.60;84.75;95536.53;4364270;32;20193;-61
2023/05/24 03:39:12;;;;;;;1.77;1.67;;;;;;;14.50;85.29;95536.84;4363602;32;20194;-63
2023/05/24 03:41:38;;;;;;;2.90;2.70;;;;;;;14.59;87.39;95545.66;4362914;32;20209;-62
2023/05/24 03:44:03;;;;;;;2.57;2.47;;;;;;;14.51;86.21;95543.78;4378422;32;20193;-61
2023/05/24 03:46:29;;;;;;;1.63;1.53;;;;;;;14.41;85.41;95545.62;4353170;32;20193;-61
2023/05/24 03:48:54;;;;;;;1.90;1.80;;;;;;;14.47;86.78;95553.50;4353767;32;20193;-61
2023/05/24 03:51:22;;;;;;;1.53;1.53;;;;;;;14.29;86.43;95548.09;4374602;32;20260;-61
2023/05/24 03:53:47;;;;;;;1.23;1.23;;;;;;;14.36;87.62;95553.75;4364856;32;20252;-61
2023/05/24 03:56:12;;;;;;;2.83;2.50;;;;;;;14.44;87.84;95562.91;4364222;32;20196;-62
2023/05/24 03:58:38;;;;;;;0.70;0.70;;;;;;;14.32;85.66;95560.81;4356955;32;20208;-61
2023/05/24 04:01:03;;;;;;;2.10;2.00;;;;;;;14.31;85.68;95561.91;4350239;32;20197;-61
2023/05/24 04:03:28;;;;;;;1.43;1.43;;;;;;;14.38;86.35;95562.22;4370272;32;20195;-61
2023/05/24 04:05:54;;;;;;;1.93;1.83;;;;;;;14.33;86.47;95559.72;4364918;32;20189;-61
2023/05/24 04:08:19;;;;;;;1.60;1.50;;;;;;;14.20;85.26;95567.84;4368426;32;20197;-62
2023/05/24 04:10:45;;;;;;;1.00;1.00;;;;;;;14.32;87.35;95568.03;4363235;32;20188;-61
2023/05/24 04:13:10;;;;;;;1.47;1.37;;;;;;;14.31;86.78;95561.91;4375850;32;20204;-61
2023/05/24 04:15:36;;;;;;;1.20;1.20;;;;;;;14.26;86.06;95564.72;4369608;32;20193;-59
2023/05/24 04:18:02;;;;;;;1.10;1.10;;;;;;;14.29;87.03;95572.13;4351848;32;20240;-58
2023/05/24 04:20:28;;;;;;;6.47;1.80;;;;;;;14.35;87.88;95567.41;4361286;32;20239;-59
2023/05/24 04:22:54;;;;;;;1.10;1.10;;;;;;;14.53;87.51;95565.59;4357566;32;20227;-58
2023/05/24 04:25:20;;;;;;;1.50;1.47;;;;;;;14.53;86.11;95560.25;4355404;32;20197;-59
2023/05/24 04:27:49;;;;;;;1.20;1.20;;;;;;;14.57;86.77;95569.19;4368030;32;20226;-59
2023/05/24 04:30:15;;;;;;;1.47;1.47;;;;;;;14.53;85.03;95566.38;4357417;32;20189;-58
2023/05/24 04:32:43;;;;;;;1.53;1.50;;;;;;;14.68;86.98;95562.47;4344836;32;20197;-58
2023/05/24 04:35:08;;;;;;;1.90;1.80;;;;;;;14.75;86.57;95570.81;4367361;32;20181;-59
2023/05/24 04:37:34;;;;;;;2.00;1.90;;;;;;;14.57;84.96;95561.19;4367724;32;20208;-58
2023/05/24 04:39:59;;;;;;;1.40;1.30;;;;;;;14.47;85.02;95572.97;4364106;32;20193;-59
2023/05/24 04:42:26;;;;;;;2.20;2.00;;;;;;;14.54;87.75;95570.63;4357184;32;20204;-59
2023/05/24 04:44:51;;;;;;;1.70;1.70;;;;;;;14.52;87.90;95564.03;4359221;32;20215;-59
2023/05/24 04:47:16;;;;;;;1.50;1.50;;;;;;;14.61;87.49;95567.47;4345544;32;20225;-59
2023/05/24 04:49:42;;;;;;;9.80;1.90;;;;;;;14.71;87.79;95569.88;4357046;32;20209;-59
2023/05/24 04:52:07;;;;;;;2.23;2.13;;;;;;;14.58;86.95;95571.56;4360107;32;20227;-59
2023/05/24 04:54:33;;;;;;;2.03;1.93;;;;;;;14.60;86.76;95564.03;4345148;32;20321;-59
2023/05/24 04:56:58;;;;;;;2.03;1.93;;;;;;;14.52;85.38;95575.50;4365944;32;20189;-59
2023/05/24 04:59:24;;;;;;;2.30;2.20;;;;;;;14.57;86.11;95574.53;4357936;32;20221;-59
2023/05/24 05:01:49;;;;;;;3.10;2.17;;;;;;;14.59;86.82;95572.34;4355166;32;20201;-58
2023/05/24 05:04:14;;;;;;;2.27;1.67;;;;;;;14.60;87.70;95579.25;4360801;32;20249;-59
2023/05/24 05:06:42;;;;;;;1.80;1.70;;;;;;;14.51;86.05;95579.25;4346504;32;20197;-59
2023/05/24 05:09:13;;;;;;;1.60;1.50;;;;;;;14.49;85.68;95578.78;4349421;32;20215;-58
2023/05/24 05:11:39;;;;;;;2.03;1.83;;;;;;;14.52;84.55;95577.38;4357099;32;20204;-61
2023/05/24 05:14:08;;;;;;;1.47;1.40;;;;;;;14.56;85.80;95578.31;4354737;32;20185;-61
2023/05/24 05:16:34;;;;;;;2.50;2.30;;;;;;;14.52;85.46;95577.38;4363510;32;20276;-61
2023/05/24 05:19:05;;;;;;;1.23;1.20;;;;;;;14.46;83.78;95579.41;4349340;32;20200;-61
2023/05/24 05:21:33;;;;;;;1.40;1.40;;;;;;;14.63;86.54;95581.31;4368001;32;20208;-61
2023/05/24 05:24:00;;;;;;;2.87;2.00;;;;;;;14.49;84.47;95581.44;4361651;32;20268;-62
2023/05/24 05:26:26;;;;;;;1.50;1.40;;;;;;;14.64;84.96;95580.22;4357446;32;20225;-61
2023/05/24 05:28:53;;;;;;;1.37;1.37;;;;;;;14.68;84.40;95573.16;4355329;32;20205;-61
2023/05/24 05:31:18;;;;;;;1.50;1.40;;;;;;;14.58;83.06;95581.44;4362524;32;20216;-62
2023/05/24 05:33:44;;;;;;;1.50;1.40;;;;;;;14.57;84.30;95583.34;4352937;32;20246;-61
2023/05/24 05:36:09;;;;;;;1.77;1.67;;;;;;;14.31;83.25;95583.28;4376978;32;20197;-61
2023/05/24 05:38:34;;;;;;;1.37;1.37;;;;;;;14.53;83.31;95581.63;4366194;32;20197;-61
2023/05/24 05:41:00;;;;;;;1.50;1.40;;;;;;;14.28;83.59;95583.88;4366916;32;20204;-62
2023/05/24 05:43:25;;;;;;;4.27;1.60;;;;;;;14.28;83.04;95583.09;4375820;32;20215;-61
2023/05/24 05:45:50;;;;;;;1.57;1.53;;;;;;;14.41;85.39;95575.00;4371454;32;20268;-61
2023/05/24 05:48:16;;;;;;;2.07;1.97;;;;;;;14.59;86.08;95570.47;4363149;32;20196;-61
2023/05/24 05:50:41;;;;;;;1.73;1.63;;;;;;;14.58;84.48;95574.22;4355181;32;20211;-62
2023/05/24 05:53:06;;;;;;;1.00;1.00;;;;;;;14.59;82.80;95583.03;4361083;32;20230;-62
2023/05/24 05:55:32;;;;;;;4.73;1.60;;;;;;;14.61;83.68;95570.16;4369038;32;20232;-62
2023/05/24 05:57:57;;;;;;;1.73;1.63;;;;;;;14.64;82.61;95577.53;4369176;32;20184;-61
2023/05/24 06:00:22;;;;;;;1.40;1.40;;;;;;;14.54;83.19;95577.84;4367311;32;20208;-61
2023/05/24 06:02:48;;;;;;;1.57;1.57;;;;;;;14.23;82.64;95572.56;4363909;32;20227;-62
2023/05/24 06:05:13;;;;;;;3.53;2.10;;;;;;;14.25;83.29;95573.81;4355577;32;20197;-65
2023/05/24 06:07:38;;;;;;;2.53;2.33;;;;;;;14.40;84.79;95570.75;4361544;32;20240;-61
2023/05/24 06:10:05;;;;;;;2.70;2.23;;;;;;;14.65;85.95;95563.09;4361363;32;20224;-62
2023/05/24 06:12:30;;;;;;;3.17;2.40;;;;;;;14.71;84.25;95565.31;4369710;32;20222;-62
2023/05/24 06:14:56;;;;;;;4.00;2.23;;;;;;;14.67;81.65;95558.22;4355026;32;20197;-61
2023/05/24 06:17:23;;;;;;;2.47;2.27;;;;;;;14.59;80.72;95567.78;4373319;32;20268;-61
2023/05/24 06:19:50;;;;;;;2.03;1.93;;;;;;;14.54;83.35;95564.50;4347924;32;20248;-61
2023/05/24 06:22:15;;;;;;;1.73;1.70;;;;;;;14.55;82.55;95563.41;4362015;32;20211;-61
2023/05/24 06:24:40;;;;;;;2.33;2.23;;;;;;;14.57;81.70;95563.84;4368400;32;20189;-63
2023/05/24 06:27:06;;;;;;;3.70;3.47;;;;;;;14.64;80.32;95564.19;4359021;32;20204;-62
2023/05/24 06:29:31;;;;;;;1.70;1.60;;;;;;;14.46;79.89;95567.94;4372874;32;20203;-62
2023/05/24 06:31:56;;;;;;;2.07;1.97;;;;;;;14.43;79.96;95567.47;4368252;32;20204;-62
2023/05/24 06:34:22;;;;;;;2.77;2.67;;;;;;;14.15;81.39;95563.41;4360854;32;20250;-62
2023/05/24 06:36:50;;;;;;;3.70;3.50;;;;;;;14.16;81.72;95565.00;4353912;32;20267;-63
2023/05/24 06:39:16;;;;;;;2.73;2.53;;;;;;;14.31;80.92;95563.81;4362107;32;20196;-62
2023/05/24 06:41:43;;;;;;;2.93;2.83;;;;;;;14.51;80.98;95560.56;4363885;32;20189;-62
2023/05/24 06:44:08;;;;;;;3.63;3.33;;;;;;;14.56;81.46;95563.06;4371717;32;20207;-62
2023/05/24 06:46:34;;;;;;;3.60;3.30;;;;;;;14.58;80.80;95568.88;4364777;32;20201;-62
2023/05/24 06:48:59;;;;;;;2.43;2.23;;;;;;;14.67;80.95;95564.34;4363495;32;20211;-63
2023/05/24 06:51:25;;;;;;;2.40;2.30;;;;;;;14.88;79.06;95564.53;4361269;32;20193;-62
2023/05/24 06:53:51;;;;;;;2.70;2.60;;;;;;;15.01;78.06;95563.56;4351827;32;20189;-63
2023/05/24 06:56:16;;;;;;;2.33;2.23;;;;;;;14.82;78.83;95565.78;4356766;32;20229;-60
2023/05/24 06:58:42;;;;;;;2.97;2.87;;;;;;;14.52;79.61;95577.38;4368967;32;20189;-60
2023/05/24 07:01:07;;;;;;;3.03;2.93;;;;;;;14.29;80.87;95580.13;4369727;32;20300;-60
2023/05/24 07:03:33;;;;;;;1.80;1.80;;;;;;;14.30;80.67;95572.91;4364137;32;20240;-60
2023/05/24 07:05:59;;;;;;;3.03;2.90;;;;;;;14.28;80.84;95578.53;4360514;32;20208;-60
2023/05/24 07:08:24;;;;;;;3.10;3.00;;;;;;;14.52;80.54;95575.50;4367545;32;20204;-60
2023/05/24 07:10:49;;;;;;;1.90;1.80;;;;;;;14.58;80.60;95576.09;4364548;32;20192;-60
2023/05/24 07:13:15;;;;;;;2.67;2.57;;;;;;;14.57;80.05;95575.31;4356356;32;20240;-60
2023/05/24 07:15:41;;;;;;;3.60;3.30;;;;;;;14.72;79.42;95580.22;4353051;32;20207;-60
2023/05/24 07:18:06;;;;;;;3.37;3.00;;;;;;;14.76;79.22;95585.72;4362233;32;20249;-60
2023/05/24 07:20:32;;;;;;;3.93;3.00;;;;;;;14.86;79.36;95584.62;4353067;32;20236;-60
2023/05/24 07:22:59;;;;;;;2.20;2.10;;;;;;;14.86;77.79;95582.75;4352804;32;20201;-61
2023/05/24 07:25:24;;;;;;;3.43;3.03;;;;;;;14.88;77.30;95580.56;4347141;32;20194;-61
2023/05/24 07:27:50;;;;;;;2.50;2.40;;;;;;;14.85;77.12;95581.19;4368958;32;20204;-61
2023/05/24 07:30:15;;;;;;;8.77;5.40;;;;;;;14.81;76.40;95579.44;4364124;32;20193;-60
2023/05/24 07:32:41;;;;;;;5.60;5.20;;;;;;;14.95;76.38;95580.09;4363342;32;20189;-60
2023/05/24 07:35:07;;;;;;;3.17;2.97;;;;;;;14.97;76.36;95581.31;4358506;32;20193;-60
2023/05/24 07:37:32;;;;;;;3.67;3.47;;;;;;;14.87;76.77;95576.31;4353500;32;20251;-60
2023/05/24 07:39:57;;;;;;;2.43;2.33;;;;;;;14.89;77.36;95578.66;4366943;32;20211;-61
2023/05/24 07:42:23;;;;;;;9.27;5.00;;;;;;;14.86;77.18;95576.62;4368451;32;20196;-60
2023/05/24 07:44:48;;;;;;;2.63;2.23;;;;;;;14.86;76.76;95582.75;4355110;32;20256;-60
2023/05/24 07:47:13;;;;;;;2.23;2.13;;;;;;;15.04;76.29;95584.31;4356118;32;20215;-64
2023/05/24 07:49:39;;;;;;;3.13;2.53;;;;;;;15.13;76.71;95587.78;4364168;32;20203;-61
2023/05/24 07:52:05;;;;;;;2.83;2.63;;;;;;;15.09;76.08;95584.19;4363858;32;20260;-60
2023/05/24 07:54:30;;;;;;;3.43;3.13;;;;;;;15.10;76.42;95583.06;4346281;32;20355;-60
2023/05/24 07:56:56;;;;;;;4.03;3.83;;;;;;;15.09;75.74;95581.50;4355228;32;20193;-60
2023/05/24 07:59:21;;;;;;;2.07;1.93;;;;;;;15.31;75.33;95582.44;4362799;32;20185;-60
2023/05/24 08:01:47;;;;;;;1.80;1.80;;;;;;;15.30;74.96;95583.53;4357632;32;20192;-60
2023/05/24 08:04:12;;;;;;;3.33;1.67;;;;;;;15.34;74.90;95587.16;4354907;32;20240;-61
2023/05/24 08:06:37;;;;;;;3.03;2.60;;;;;;;15.07;75.90;95583.69;4360481;32;20192;-61
2023/05/24 08:09:04;;;;;;;1.77;1.70;;;;;;;15.39;74.58;95592.31;4360328;32;20287;-60
2023/05/24 08:11:30;;;;;;;1.87;1.77;;;;;;;15.21;76.39;95596.88;4360393;32;20230;-60
2023/05/24 08:13:55;;;;;;;1.67;1.67;;;;;;;15.03;77.21;95588.09;4373425;32;20181;-61
2023/05/24 08:16:21;;;;;;;2.30;2.20;;;;;;;15.31;76.67;95593.13;4359679;32;20189;-61
2023/05/24 08:18:46;;;;;;;4.53;2.80;;;;;;;15.39;74.86;95585.06;4363653;32;20223;-60
2023/05/24 08:21:11;;;;;;;1.80;1.80;;;;;;;15.28;75.56;95583.06;4360542;32;20253;-60
2023/05/24 08:23:37;;;;;;;1.67;1.67;;;;;;;15.41;75.22;95582.88;4355745;32;20224;-60
2023/05/24 08:26:02;;;;;;;1.97;1.87;;;;;;;15.44;73.92;95594.81;4360740;32;20251;-61
2023/05/24 08:28:28;;;;;;;2.10;2.00;;;;;;;15.52;73.29;95588.69;4354510;32;20235;-60
2023/05/24 08:30:54;;;;;;;1.80;1.70;;;;;;;15.47;74.55;95604.88;4351190;32;20287;-61
2023/05/24 08:33:21;;;;;;;12.73;2.60;;;;;;;15.43;74.75;95602.06;4358668;32;20216;-61
2023/05/24 08:35:47;;;;;;;1.63;1.53;;;;;;;15.35;75.04;95602.09;4374454;32;20204;-60
2023/05/24 08:38:12;;;;;;;2.00;2.00;;;;;;;15.33;75.66;95601.63;4364695;32;20189;-61
2023/05/24 08:40:38;;;;;;;3.90;3.60;;;;;;;15.42;76.39;95605.03;4361980;32;20193;-61
2023/05/24 08:43:10;;;;;;;2.33;2.23;;;;;;;15.44;75.33;95597.50;4353165;32;20291;-60
2023/05/24 08:45:37;;;;;;;2.50;2.30;;;;;;;15.33;75.05;95606.97;4355109;32;20204;-60
2023/05/24 08:48:03;;;;;;;2.43;2.33;;;;;;;15.52;73.51;95598.59;4351245;32;20208;-61
2023/05/24 08:50:29;;;;;;;3.10;2.80;;;;;;;15.51;75.42;95603.16;4356250;32;20193;-61
2023/05/24 08:52:55;;;;;;;2.40;2.30;;;;;;;15.37;75.41;95602.56;4355962;32;20212;-61
2023/05/24 08:55:21;;;;;;;1.70;1.70;;;;;;;15.47;74.35;95605.69;4355185;32;20298;-60
2023/05/24 08:57:47;;;;;;;2.83;2.63;;;;;;;15.51;73.70;95605.84;4355821;32;20188;-61
2023/05/24 09:00:13;;;;;;;2.50;2.40;;;;;;;15.55;74.70;95614.81;4357573;32;20364;-60
2023/05/24 09:02:39;;;;;;;3.07;2.83;;;;;;;15.42;73.19;95610.41;4357759;32;20196;-60
2023/05/24 09:05:09;;;;;;;1.90;1.90;;;;;;;15.19;73.99;95609.00;4359892;32;20192;-60
2023/05/24 09:07:38;;;;;;;5.13;3.10;;;;;;;15.19;74.12;95612.44;4353529;32;20216;-60
2023/05/24 09:10:05;;;;;;;2.37;2.27;;;;;;;15.21;75.49;95615.59;4361312;32;20284;-60
2023/05/24 09:12:32;;;;;;;2.73;2.53;;;;;;;15.09;74.48;95613.56;4365923;32;20224;-60
2023/05/24 09:14:58;;;;;;;2.03;1.93;;;;;;;15.20;74.54;95611.34;4345144;32;20189;-60
2023/05/24 09:17:24;;;;;;;2.60;2.20;;;;;;;15.18;74.48;95610.87;4370674;32;20247;-61
2023/05/24 09:19:50;;;;;;;1.87;1.80;;;;;;;15.20;74.39;95607.91;4354571;32;20206;-60
2023/05/24 09:22:22;;;;;;;1.97;1.23;;;;;;;15.23;74.25;95615.28;4354871;32;20290;-60
2023/05/24 09:24:48;;;;;;;2.13;2.03;;;;;;;15.32;73.58;95622.22;4366214;32;20188;-60
2023/05/24 09:27:20;;;;;;;3.20;3.00;;;;;;;15.09;73.19;95624.25;4356699;32;20185;-63
2023/05/24 09:29:47;;;;;;;2.27;2.17;;;;;;;15.22;72.90;95627.06;4348799;32;20205;-60
2023/05/24 09:32:17;;;;;;;1.80;1.80;;;;;;;15.10;72.40;95631.19;4366748;32;20239;-60
2023/05/24 09:34:46;;;;;;;2.47;2.37;;;;;;;14.96;71.76;95625.19;4360659;32;20205;-61
2023/05/24 09:37:16;;;;;;;2.67;2.57;;;;;;;14.82;72.75;95624.53;4357551;32;20203;-60
2023/05/24 09:39:51;;;;;;;3.57;3.37;;;;;;;14.92;72.85;95626.91;4366792;32;20228;-61
2023/05/24 09:42:20;;;;;;;2.17;2.07;;;;;;;14.91;71.40;95625.34;4368133;32;20201;-61
2023/05/24 09:44:57;;;;;;;2.63;2.43;;;;;;;14.87;73.03;95632.41;4375572;32;20185;-61
2023/05/24 09:47:28;;;;;;;2.37;2.27;;;;;;;14.97;73.44;95631.31;4364858;32;20268;-60
2023/05/24 09:49:55;;;;;;;1.60;1.60;;;;;;;14.84;73.61;95625.00;4344049;32;20228;-60
2023/05/24 09:52:21;;;;;;;2.63;2.53;;;;;;;15.10;72.42;95628.50;4355833;32;20203;-60
2023/05/24 09:54:46;;;;;;;3.20;2.63;;;;;;;15.02;72.34;95629.28;4353218;32;20184;-61
2023/05/24 09:57:14;;;;;;;1.80;1.80;;;;;;;14.87;73.21;95629.75;4353148;32;20181;-60
2023/05/24 09:59:41;;;;;;;2.00;2.00;;;;;;;14.99;72.78;95624.56;4364573;32;20235;-61
2023/05/24 10:02:09;;;;;;;2.17;2.07;;;;;;;14.99;72.14;95619.22;4352525;32;20181;-60
2023/05/24 10:04:35;;;;;;;2.70;2.60;;;;;;;15.13;72.14;95635.09;4352885;32;20279;-60
2023/05/24 10:07:01;;;;;;;2.60;2.43;;;;;;;14.98;74.37;95628.31;4359011;32;20265;-62
2023/05/24 10:09:32;;;;;;;2.13;2.13;;;;;;;15.04;75.02;95627.06;4350659;32;20201;-60
2023/05/24 10:12:01;;;;;;;2.90;2.80;;;;;;;15.21;73.48;95636.97;4364594;32;20193;-61
2023/05/24 10:14:30;;;;;;;2.60;2.40;;;;;;;15.15;74.54;95629.44;4360433;32;20214;-61
2023/05/24 10:16:55;;;;;;;2.80;2.70;;;;;;;15.07;73.17;95631.78;4378247;32;20236;-61
2023/05/24 10:19:22;;;;;;;3.40;3.17;;;;;;;14.97;74.65;95628.63;4374004;32;20196;-61
2023/05/24 10:21:48;;;;;;;7.67;2.80;;;;;;;14.90;75.37;95634.47;4363556;32;20227;-61
2023/05/24 10:24:18;;;;;;;2.37;2.27;;;;;;;14.90;74.62;95636.34;4371829;32;20204;-61
2023/05/24 10:26:47;;;;;;;3.20;3.00;;;;;;;14.82;76.11;95635.22;4362883;32;20197;-61
2023/05/24 10:29:24;;;;;;;3.07;2.87;;;;;;;14.86;77.09;95641.53;4357649;32;20207;-61
2023/05/24 10:31:51;;;;;;;2.70;2.57;;;;;;;14.91;78.19;95641.37;4340266;32;20201;-62
2023/05/24 10:34:17;;;;;;;2.43;2.33;;;;;;;14.82;79.41;95643.22;4363580;32;20196;-61
2023/05/24 10:36:43;;;;;;;2.63;2.53;;;;;;;14.72;81.26;95651.56;4365876;32;20279;-60
2023/05/24 10:39:12;;;;;;;4.73;3.20;;;;;;;14.49;81.34;95648.19;4366062;32;20220;-61
2023/05/24 10:41:40;;;;;;;2.40;2.30;;;;;;;14.50;81.43;95648.97;4361321;32;20198;-61
2023/05/24 10:44:12;;;;;;;2.63;2.53;;;;;;;14.55;78.22;95641.59;4360960;32;20213;-61
2023/05/24 10:47:03;;;;;;;2.90;2.80;;;;;;;14.63;78.71;95634.72;4371267;32;20207;-61
2023/05/24 10:49:28;;;;;;;2.53;2.33;;;;;;;14.60;79.13;95644.13;4369554;32;20208;-60
2023/05/24 10:52:01;;;;;;;2.77;2.67;;;;;;;14.60;76.54;95643.34;4362909;32;20202;-61
2023/05/24 10:54:26;;;;;;;2.33;2.23;;;;;;;14.58;79.12;95646.31;4356650;32;20200;-61
2023/05/24 10:56:52;;;;;;;3.60;3.30;;;;;;;14.51;74.98;95661.22;4368224;32;20203;-61
2023/05/24 10:59:38;;;;;;;2.27;2.17;;;;;;;14.47;77.30;95642.38;4357150;32;20261;-61
2023/05/24 11:02:08;;;;;;;2.07;1.97;;;;;;;14.55;76.93;95641.59;4354574;32;20230;-61
2023/05/24 11:04:39;;;;;;;3.33;3.03;;;;;;;14.38;75.97;95650.31;4363504;32;20232;-61
2023/05/24 11:07:08;;;;;;;1.97;1.90;;;;;;;14.50;75.52;95648.97;4352256;32;20312;-61
2023/05/24 11:09:44;;;;;;;3.87;2.77;;;;;;;14.39;77.08;95643.88;4347008;32;20240;-61
2023/05/24 11:12:13;;;;;;;2.93;2.77;;;;;;;14.38;76.81;95642.31;4368257;32;20204;-61
2023/05/24 11:14:39;;;;;;;3.10;2.83;;;;;;;14.57;73.79;95643.97;4366210;32;20212;-61
2023/05/24 11:17:06;;;;;;;3.33;3.13;;;;;;;14.47;74.47;95630.91;4365868;32;20214;-61
2023/05/24 11:19:36;;;;;;;3.30;2.90;;;;;;;14.50;73.53;95640.97;4353678;32;20201;-61
2023/05/24 11:22:06;;;;;;;3.43;2.60;;;;;;;14.50;75.48;95643.66;4368228;32;20197;-61
2023/05/24 11:24:32;;;;;;;2.07;1.97;;;;;;;14.49;74.22;95647.41;4347638;32;20261;-61
2023/05/24 11:26:59;;;;;;;2.50;2.40;;;;;;;14.49;74.74;95639.41;4341930;32;20208;-61
2023/05/24 11:29:24;;;;;;;3.03;2.90;;;;;;;14.57;74.60;95643.97;4368121;32;20193;-61
2023/05/24 11:31:52;;;;;;;3.10;2.77;;;;;;;14.55;76.32;95640.84;4366738;32;20225;-61
2023/05/24 11:34:23;;;;;;;3.33;3.13;;;;;;;14.68;73.32;95639.91;4365601;32;20184;-61